Airfield :
LOGIN :

Register | Disclaimer

   EN    FR    IT 

 










Legend :    VFR   Marginal VFR   IFR   Intensive IFR   Very Intensive IFR
Visi :
Ceiling :
>= 8 km
>= 3000ft
5 to 8 km
1000 to 3000 ft
1500m to 5 km
500 to 1000 ft
800 to 1500m
200 to 500 ft
< 800m
< 200 ft
Symbols :   Thunderstorms  Fog  Heavy snow  Heavy precipitations  Wind > 20 kt
SIGMETs :     Misc.  Thunderstorms  Icing  Turbulence  Mountain Waves  Volcanic Ashes






- Airport Elevation : 302 ft
- IATA code : CGN


EDDK - Cologne Bonn

CURRENT METAR :
  • 271720Z 14007KT 9999 FEW031 07/06 Q1004 NOSIG

EXPIRED METARs :
  • 271650Z 14008KT 9999 FEW021 BKN048 07/06 Q1004 NOSIG
  • 271620Z 13008KT 9999 -RA FEW008 BKN038 07/06 Q1004 NOSIG
  • 271550Z 13008KT 9999 -RA FEW018 SCT027 BKN038 07/06 Q1005 NOSIG
  • 271520Z 15007KT 9999 -RA FEW017 SCT020 BKN034 07/06 Q1006 TEMPO RA
  • 271450Z 14006KT 9999 -RA FEW022 BKN032 07/06 Q1006 RERA TEMPO RA

TAF TAF EDDK
Valid from the 27 at 18:00 until the 29 at 00:00 UTC


271700Z 2718/2824 16009KT 9999 BKN035
BECMG 2802/2805 22010KT
TEMPO 2803/2814 SHRA BKN025TCU
PROB30
TEMPO 2804/2810 TSGS BKN020CB
BECMG 2805/2808 25015G25KT
TEMPO 2808/2816 27020G35KT
BECMG 2816/2819 24009KT



MET'MAP, your aeronautical weather chart ! - Copyright ORBIFLY December 2007 - Disclaimer

ORBIFLY MET'MAP TEAM :

Programming & Development : Alexandra Zaïnal
Concept & original design : Baudouin d'Aumeries
Assistance for programming : Marc-Olivier Méhu
Technical & hardware support : Manuel Goepfert

Contact : metmap@orbifly.com




SOURCES & CREDITS :

   NOAA